createdAt,value
2022-08-14T00:00:33.949Z,24.13
2022-08-14T00:01:34.002Z,24.08
2022-08-14T00:02:33.979Z,24.14
2022-08-14T00:03:33.920Z,24.02
2022-08-14T00:04:35.618Z,24.05
2022-08-14T00:05:34.893Z,23.98
2022-08-14T00:06:33.891Z,23.93
2022-08-14T00:07:33.877Z,24.02
2022-08-14T00:08:44.291Z,24.02
2022-08-14T00:09:55.310Z,23.98
2022-08-14T00:10:51.406Z,23.87
2022-08-14T00:11:34.826Z,23.87
2022-08-14T00:12:37.568Z,23.91
2022-08-14T00:13:34.803Z,23.81
2022-08-14T00:14:33.793Z,23.83
2022-08-14T00:15:43.744Z,23.84
2022-08-14T00:16:41.306Z,23.86
2022-08-14T00:17:38.163Z,23.76
2022-08-14T00:19:06.402Z,23.74
2022-08-14T00:19:34.736Z,23.65
2022-08-14T00:20:41.233Z,23.62
2022-08-14T00:21:34.714Z,23.59
2022-08-14T00:22:56.566Z,23.51
2022-08-14T00:23:34.692Z,23.54
2022-08-14T00:24:33.680Z,23.48
2022-08-14T00:25:42.368Z,23.48
2022-08-14T00:26:33.656Z,23.44
2022-08-14T00:27:37.778Z,23.47
2022-08-14T00:28:35.082Z,23.54
2022-08-14T00:29:40.596Z,23.54
2022-08-14T00:30:34.646Z,23.48
2022-08-14T00:31:35.210Z,23.50
2022-08-14T00:32:53.122Z,23.56
2022-08-14T00:33:50.838Z,23.47
2022-08-14T00:34:37.089Z,23.51
2022-08-14T00:36:34.960Z,23.55
2022-08-14T00:36:48.644Z,23.47
2022-08-14T00:37:34.538Z,23.40
2022-08-14T00:38:34.716Z,23.41
2022-08-14T00:39:33.570Z,23.43
2022-08-14T00:40:35.514Z,23.40
2022-08-14T00:41:33.533Z,23.32
2022-08-14T00:42:55.551Z,23.34
2022-08-14T00:43:34.488Z,23.28
2022-08-14T00:44:33.527Z,23.12
2022-08-14T00:45:33.447Z,23.12
2022-08-14T00:46:33.657Z,23.12
2022-08-14T00:47:33.435Z,23.15
2022-08-14T00:48:37.001Z,23.23
2022-08-14T00:49:38.209Z,23.17
2022-08-14T00:50:34.388Z,23.23
2022-08-14T00:51:37.823Z,23.24
2022-08-14T00:52:33.366Z,23.34
2022-08-14T00:53:33.361Z,23.23
2022-08-14T00:54:33.349Z,23.18
2022-08-14T00:55:35.978Z,23.12
2022-08-14T00:56:34.337Z,23.13
2022-08-14T00:57:33.313Z,23.09
2022-08-14T00:58:33.406Z,23.13
2022-08-14T00:59:33.296Z,23.12
2022-08-14T01:00:37.591Z,23.08
2022-08-14T01:01:34.332Z,23.13
2022-08-14T01:02:33.256Z,23.13
2022-08-14T01:03:33.248Z,23.12
2022-08-14T01:04:51.045Z,23.10
2022-08-14T01:05:41.799Z,23.05
2022-08-14T01:06:34.502Z,23.06
2022-08-14T01:07:38.527Z,23.10
2022-08-14T01:08:52.450Z,23.03
2022-08-14T01:09:34.178Z,23.06
2022-08-14T01:10:38.398Z,22.98
2022-08-14T01:11:36.135Z,23.13
2022-08-14T01:12:33.160Z,23.13
2022-08-14T01:13:42.249Z,23.03
2022-08-14T01:14:34.118Z,23.09
2022-08-14T01:15:57.915Z,23.17
2022-08-14T01:16:34.094Z,23.09
2022-08-14T01:17:33.107Z,23.06
2022-08-14T01:18:33.078Z,23.17
2022-08-14T01:19:33.077Z,23.10
2022-08-14T01:20:33.053Z,23.06
2022-08-14T01:21:34.719Z,23.02
2022-08-14T01:22:34.041Z,23.03
2022-08-14T01:23:46.412Z,23.09
2022-08-14T01:24:34.401Z,22.98
2022-08-14T01:25:32.997Z,22.99
2022-08-14T01:26:35.026Z,22.94
2022-08-14T01:27:45.167Z,22.93
2022-08-14T01:28:46.650Z,22.91
2022-08-14T01:29:59.440Z,22.91
2022-08-14T01:30:38.256Z,22.88
2022-08-14T01:31:32.930Z,22.94
2022-08-14T01:32:37.390Z,22.88
2022-08-14T01:34:00.262Z,22.90
2022-08-14T01:35:19.619Z,22.88
2022-08-14T01:36:03.370Z,22.85
2022-08-14T01:36:35.424Z,22.91
2022-08-14T01:37:32.877Z,22.87
2022-08-14T01:38:32.846Z,22.84
2022-08-14T01:39:32.882Z,22.84
2022-08-14T01:40:36.955Z,22.83
2022-08-14T01:41:33.815Z,22.88
2022-08-14T01:42:36.141Z,22.85
2022-08-14T01:43:35.878Z,22.88
2022-08-14T01:44:34.519Z,22.85
2022-08-14T01:45:40.840Z,22.87
2022-08-14T01:46:33.489Z,22.73
2022-08-14T01:47:37.113Z,22.73
2022-08-14T01:48:32.758Z,22.78
2022-08-14T01:49:35.255Z,22.69
2022-08-14T01:50:33.827Z,22.70
2022-08-14T01:51:32.705Z,22.69
2022-08-14T01:52:33.978Z,22.76
2022-08-14T01:53:35.801Z,22.68
2022-08-14T01:54:38.133Z,22.63
2022-08-14T01:55:33.665Z,22.59
2022-08-14T01:56:36.914Z,22.62
2022-08-14T01:57:49.522Z,22.51
2022-08-14T01:58:33.623Z,22.54
2022-08-14T01:59:38.267Z,22.50
2022-08-14T02:00:36.357Z,22.38
2022-08-14T02:01:32.666Z,22.41
2022-08-14T02:02:39.667Z,22.43
2022-08-14T02:03:32.568Z,22.43
2022-08-14T02:04:54.732Z,22.45
2022-08-14T02:05:35.517Z,22.45
2022-08-14T02:06:33.758Z,22.41
2022-08-14T02:07:53.441Z,22.33
2022-08-14T02:08:34.590Z,22.39
2022-08-14T02:09:32.525Z,22.35
2022-08-14T02:10:33.491Z,22.44
2022-08-14T02:11:33.488Z,22.33
2022-08-14T02:12:32.469Z,22.32
2022-08-14T02:13:32.463Z,22.38
2022-08-14T02:14:32.462Z,22.38
2022-08-14T02:15:32.437Z,22.36
2022-08-14T02:16:32.440Z,22.33
2022-08-14T02:17:32.413Z,22.30
2022-08-14T02:18:32.588Z,22.29
2022-08-14T02:19:32.513Z,22.28
2022-08-14T02:20:32.381Z,22.25
2022-08-14T02:21:39.474Z,22.20
2022-08-14T02:22:47.971Z,22.18
2022-08-14T02:23:36.139Z,22.17
2022-08-14T02:24:40.261Z,22.22
2022-08-14T02:25:33.331Z,22.25
2022-08-14T02:26:32.304Z,22.25
2022-08-14T02:28:21.978Z,22.17
2022-08-14T02:28:57.377Z,22.25
2022-08-14T02:29:59.325Z,22.28
2022-08-14T02:30:33.270Z,22.14
2022-08-14T02:31:42.024Z,22.26
2022-08-14T02:32:36.601Z,22.25
2022-08-14T02:33:33.704Z,22.23
2022-08-14T02:34:32.224Z,22.22
2022-08-14T02:35:33.119Z,22.23
2022-08-14T02:37:04.451Z,22.25
2022-08-14T02:37:47.082Z,22.22
2022-08-14T02:38:34.950Z,22.20
2022-08-14T02:39:32.191Z,22.20
2022-08-14T02:40:33.897Z,22.26
2022-08-14T02:41:36.689Z,22.26
2022-08-14T02:42:37.439Z,22.25
2022-08-14T02:43:36.650Z,22.28
2022-08-14T02:44:32.133Z,22.32
2022-08-14T02:45:38.361Z,22.32
2022-08-14T02:46:33.851Z,22.20
2022-08-14T02:47:32.070Z,22.28
2022-08-14T02:49:02.469Z,22.13
2022-08-14T02:49:34.158Z,22.20
2022-08-14T02:50:33.688Z,22.11
2022-08-14T02:51:32.042Z,22.13
2022-08-14T02:52:57.733Z,22.15
2022-08-14T02:53:33.255Z,22.10
2022-08-14T02:54:31.991Z,22.17
2022-08-14T02:55:31.982Z,22.11
2022-08-14T02:57:14.049Z,22.13
2022-08-14T02:57:40.374Z,22.17
2022-08-14T02:58:32.951Z,22.20
2022-08-14T02:59:33.876Z,22.18
2022-08-14T03:00:31.972Z,22.17
2022-08-14T03:01:50.292Z,22.15
2022-08-14T03:02:48.694Z,22.25
2022-08-14T03:03:35.313Z,22.10
2022-08-14T03:04:31.883Z,22.07
2022-08-14T03:05:36.153Z,22.11
2022-08-14T03:06:48.887Z,22.10
2022-08-14T03:07:32.853Z,22.04
2022-08-14T03:08:31.978Z,22.08
2022-08-14T03:09:41.976Z,22.08
2022-08-14T03:10:33.431Z,22.07
2022-08-14T03:11:35.085Z,22.08
2022-08-14T03:12:32.806Z,22.11
2022-08-14T03:13:31.779Z,21.93
2022-08-14T03:14:31.768Z,21.96
2022-08-14T03:15:31.763Z,22.00
2022-08-14T03:16:31.745Z,21.98
2022-08-14T03:17:41.116Z,21.89
2022-08-14T03:18:32.882Z,21.85
2022-08-14T03:19:31.707Z,21.88
2022-08-14T03:20:31.698Z,21.89
2022-08-14T03:21:31.683Z,21.92
2022-08-14T03:22:31.696Z,21.98
2022-08-14T03:23:31.665Z,21.95
2022-08-14T03:24:31.669Z,21.89
2022-08-14T03:25:31.640Z,21.83
2022-08-14T03:26:31.630Z,21.91
2022-08-14T03:27:35.365Z,21.88
2022-08-14T03:28:33.244Z,21.92
2022-08-14T03:29:31.605Z,21.96
2022-08-14T03:30:37.108Z,21.88
2022-08-14T03:31:32.578Z,21.82
2022-08-14T03:32:32.160Z,21.88
2022-08-14T03:33:37.983Z,21.82
2022-08-14T03:34:47.740Z,21.80
2022-08-14T03:35:39.741Z,21.69
2022-08-14T03:37:39.445Z,21.75
2022-08-14T03:38:01.714Z,21.69
2022-08-14T03:39:13.317Z,21.72
2022-08-14T03:39:32.544Z,21.61
2022-08-14T03:40:31.474Z,21.61
2022-08-14T03:41:33.039Z,21.54
2022-08-14T03:42:36.709Z,21.43
2022-08-14T03:43:32.758Z,21.42
2022-08-14T03:45:26.480Z,21.45
2022-08-14T03:45:34.690Z,21.39
2022-08-14T03:46:52.288Z,21.48
2022-08-14T03:47:46.705Z,21.48
2022-08-14T03:48:40.151Z,21.46
2022-08-14T03:49:32.386Z,21.30
2022-08-14T03:50:32.343Z,21.30
2022-08-14T03:51:31.350Z,21.33
2022-08-14T03:52:38.819Z,21.29
2022-08-14T03:53:34.263Z,21.30
2022-08-14T03:54:31.324Z,21.32
2022-08-14T03:55:31.304Z,21.29
2022-08-14T03:56:31.298Z,21.29
2022-08-14T03:57:31.318Z,21.25
2022-08-14T03:58:36.577Z,21.14
2022-08-14T03:59:31.304Z,21.18
2022-08-14T04:00:43.235Z,21.14
2022-08-14T04:01:39.212Z,21.15
2022-08-14T04:02:37.703Z,21.20
2022-08-14T04:03:32.219Z,21.22
2022-08-14T04:04:31.221Z,21.14
2022-08-14T04:05:42.947Z,21.22
2022-08-14T04:06:32.246Z,21.12
2022-08-14T04:07:32.914Z,21.20
2022-08-14T04:08:32.165Z,21.27
2022-08-14T04:09:31.171Z,21.20
2022-08-14T04:10:32.654Z,21.12
2022-08-14T04:11:31.124Z,21.03
2022-08-14T04:12:31.110Z,21.00
2022-08-14T04:13:31.708Z,20.97
2022-08-14T04:14:31.097Z,20.95
2022-08-14T04:15:31.093Z,20.96
2022-08-14T04:16:31.672Z,20.82
2022-08-14T04:17:31.068Z,20.87
2022-08-14T04:18:31.050Z,20.87
2022-08-14T04:19:33.143Z,20.81
2022-08-14T04:20:32.046Z,20.84
2022-08-14T04:21:39.879Z,20.70
2022-08-14T04:22:32.003Z,20.70
2022-08-14T04:23:33.297Z,20.66
2022-08-14T04:24:30.979Z,20.58
2022-08-14T04:25:31.991Z,20.67
2022-08-14T04:26:42.951Z,20.58
2022-08-14T04:27:31.977Z,20.63
2022-08-14T04:29:07.794Z,20.55
2022-08-14T04:29:32.613Z,20.60
2022-08-14T04:30:32.908Z,20.55
2022-08-14T04:32:58.330Z,20.63
2022-08-14T04:33:00.850Z,20.56
2022-08-14T04:33:32.286Z,20.59
2022-08-14T04:34:30.866Z,20.56
2022-08-14T04:35:55.286Z,20.51
2022-08-14T04:36:31.867Z,20.55
2022-08-14T04:37:30.840Z,20.59
2022-08-14T04:38:36.898Z,20.51
2022-08-14T04:39:30.859Z,20.50
2022-08-14T04:40:30.798Z,20.55
2022-08-14T04:41:31.002Z,20.51
2022-08-14T04:42:30.783Z,20.44
2022-08-14T04:43:38.717Z,20.56
2022-08-14T04:44:36.714Z,20.52
2022-08-14T04:45:31.746Z,20.47
2022-08-14T04:46:55.280Z,20.55
2022-08-14T04:47:31.716Z,20.59
2022-08-14T04:48:36.707Z,20.65
2022-08-14T04:49:31.693Z,20.60
2022-08-14T04:50:37.875Z,20.60
2022-08-14T04:51:33.732Z,20.60
2022-08-14T04:52:31.662Z,20.55
2022-08-14T04:53:34.743Z,20.58
2022-08-14T04:54:30.643Z,20.52
2022-08-14T04:55:30.853Z,20.60
2022-08-14T04:56:34.070Z,20.72
2022-08-14T04:57:30.604Z,20.63
2022-08-14T04:58:32.921Z,20.59
2022-08-14T04:59:30.586Z,20.63
2022-08-14T05:00:30.575Z,20.62
2022-08-14T05:01:33.919Z,20.66
2022-08-14T05:02:31.642Z,20.75
2022-08-14T05:03:30.537Z,20.70
2022-08-14T05:04:30.531Z,20.66
2022-08-14T05:05:32.260Z,20.69
2022-08-14T05:06:38.110Z,20.74
2022-08-14T05:07:53.927Z,20.85
2022-08-14T05:08:50.582Z,20.70
2022-08-14T05:09:31.475Z,20.85
2022-08-14T05:10:32.379Z,20.92
2022-08-14T05:11:30.451Z,20.92
2022-08-14T05:13:13.996Z,20.87
2022-08-14T05:13:42.321Z,20.85
2022-08-14T05:14:46.844Z,20.74
2022-08-14T05:15:32.156Z,20.84
2022-08-14T05:16:30.393Z,20.70
2022-08-14T05:17:43.543Z,20.78
2022-08-14T05:19:16.751Z,20.72
2022-08-14T05:19:32.731Z,20.81
2022-08-14T05:21:04.853Z,20.80
2022-08-14T05:21:57.499Z,20.81
2022-08-14T05:22:31.339Z,20.82
2022-08-14T05:23:30.318Z,20.81
2022-08-14T05:24:30.303Z,20.80
2022-08-14T05:25:30.982Z,20.92
2022-08-14T05:26:30.285Z,20.92
2022-08-14T05:27:31.192Z,20.88
2022-08-14T05:28:30.258Z,20.92
2022-08-14T05:29:30.242Z,20.99
2022-08-14T05:30:30.253Z,20.96
2022-08-14T05:31:39.666Z,21.00
2022-08-14T05:32:31.233Z,21.00
2022-08-14T05:33:30.243Z,21.06
2022-08-14T05:34:31.866Z,21.18
2022-08-14T05:35:30.186Z,21.15
2022-08-14T05:36:30.168Z,21.33
2022-08-14T05:37:30.596Z,21.45
2022-08-14T05:38:31.106Z,21.37
2022-08-14T05:39:30.268Z,21.42
2022-08-14T05:40:30.146Z,21.54
2022-08-14T05:41:52.448Z,21.58
2022-08-14T05:42:32.216Z,21.69
2022-08-14T05:43:40.939Z,21.83
2022-08-14T05:44:31.088Z,21.96
2022-08-14T05:45:30.068Z,22.10
2022-08-14T05:46:30.064Z,22.35
2022-08-14T05:47:39.339Z,22.32
2022-08-14T05:48:33.742Z,22.45
2022-08-14T05:49:33.044Z,22.47
2022-08-14T05:50:30.020Z,22.54
2022-08-14T05:51:30.653Z,22.75
2022-08-14T05:52:39.077Z,22.78
2022-08-14T05:53:32.274Z,22.96
2022-08-14T05:54:34.532Z,23.06
2022-08-14T05:55:30.984Z,23.13
2022-08-14T05:56:29.953Z,23.10
2022-08-14T05:57:29.947Z,23.25
2022-08-14T05:58:33.817Z,23.40
2022-08-14T05:59:39.181Z,23.50
2022-08-14T06:00:37.174Z,23.69
2022-08-14T06:01:31.634Z,23.87
2022-08-14T06:02:29.925Z,23.92
2022-08-14T06:03:29.867Z,23.98
2022-08-14T06:04:29.856Z,24.17
2022-08-14T06:05:29.843Z,24.14
2022-08-14T06:06:33.711Z,24.45
2022-08-14T06:07:30.859Z,24.47
2022-08-14T06:08:36.063Z,24.55
2022-08-14T06:09:30.796Z,24.68
2022-08-14T06:10:30.794Z,24.74
2022-08-14T06:11:30.998Z,24.93
2022-08-14T06:13:00.090Z,25.07
2022-08-14T06:13:31.762Z,25.17
2022-08-14T06:14:30.741Z,25.22
2022-08-14T06:15:30.807Z,25.21
2022-08-14T06:16:29.730Z,25.25
2022-08-14T06:17:29.711Z,25.51
2022-08-14T06:18:32.179Z,25.63
2022-08-14T06:19:29.808Z,25.63
2022-08-14T06:20:30.236Z,25.83
2022-08-14T06:21:29.732Z,25.87
2022-08-14T06:22:29.659Z,25.83
2022-08-14T06:23:29.651Z,25.73
2022-08-14T06:24:30.628Z,25.85
2022-08-14T06:25:30.640Z,25.98
2022-08-14T06:26:30.451Z,25.95
2022-08-14T06:27:34.071Z,25.98
2022-08-14T06:28:30.596Z,26.07
2022-08-14T06:29:32.461Z,25.93
2022-08-14T06:30:45.858Z,25.96
2022-08-14T06:31:30.563Z,26.09
2022-08-14T06:32:36.941Z,26.02
2022-08-14T06:35:02.401Z,26.26
2022-08-14T06:35:09.809Z,26.38
2022-08-14T06:35:30.511Z,26.55
2022-08-14T06:36:29.496Z,26.77
2022-08-14T06:37:29.487Z,26.96
2022-08-14T06:38:29.556Z,26.88
2022-08-14T06:39:36.351Z,27.08
2022-08-14T06:40:30.626Z,27.00
2022-08-14T06:41:52.654Z,26.88
2022-08-14T06:42:33.034Z,26.80
2022-08-14T06:43:32.531Z,26.95
2022-08-14T06:44:30.668Z,26.83
2022-08-14T06:45:29.395Z,26.73
2022-08-14T06:46:34.106Z,26.99
2022-08-14T06:47:30.372Z,27.17
2022-08-14T06:48:29.382Z,27.27
2022-08-14T06:49:30.223Z,27.35
2022-08-14T06:50:30.229Z,27.35
2022-08-14T06:51:38.797Z,27.39
2022-08-14T06:52:30.320Z,27.48
2022-08-14T06:53:29.310Z,27.54
2022-08-14T06:54:31.579Z,27.52
2022-08-14T06:55:29.595Z,27.77
2022-08-14T06:56:29.283Z,27.54
2022-08-14T06:57:29.266Z,27.35
2022-08-14T06:58:31.625Z,27.39
2022-08-14T06:59:29.262Z,27.47
2022-08-14T07:00:30.757Z,27.45
2022-08-14T07:01:29.247Z,27.49
2022-08-14T07:02:29.409Z,27.54
2022-08-14T07:03:29.200Z,27.64
2022-08-14T07:04:29.189Z,27.78
2022-08-14T07:05:29.196Z,27.70
2022-08-14T07:06:45.538Z,27.68
2022-08-14T07:07:30.158Z,27.54
2022-08-14T07:08:29.805Z,27.51
2022-08-14T07:09:44.247Z,27.35
2022-08-14T07:10:30.124Z,27.26
2022-08-14T07:11:29.114Z,27.11
2022-08-14T07:12:52.222Z,27.08
2022-08-14T07:13:30.653Z,27.14
2022-08-14T07:14:29.114Z,27.17
2022-08-14T07:15:29.077Z,27.05
2022-08-14T07:16:29.060Z,26.97
2022-08-14T07:17:29.054Z,26.84
2022-08-14T07:18:30.045Z,26.75
2022-08-14T07:19:29.052Z,26.78
2022-08-14T07:20:31.341Z,26.71
2022-08-14T07:21:29.013Z,26.89
2022-08-14T07:22:33.103Z,26.90
2022-08-14T07:23:31.332Z,26.95
2022-08-14T07:24:31.399Z,26.95
2022-08-14T07:25:32.876Z,26.96
2022-08-14T07:26:29.421Z,26.84
2022-08-14T07:27:28.943Z,26.89
2022-08-14T07:28:29.925Z,26.81
2022-08-14T07:29:29.193Z,26.85
2022-08-14T07:30:34.692Z,26.83
2022-08-14T07:31:29.895Z,26.89
2022-08-14T07:32:33.867Z,26.95
2022-08-14T07:33:30.286Z,27.05
2022-08-14T07:34:40.605Z,27.14
2022-08-14T07:35:30.318Z,27.27
2022-08-14T07:36:30.802Z,27.29
2022-08-14T07:37:28.848Z,27.35
2022-08-14T07:38:33.666Z,27.36
2022-08-14T07:39:29.848Z,27.32
2022-08-14T07:40:29.991Z,27.35
2022-08-14T07:41:31.288Z,27.47
2022-08-14T07:42:29.787Z,27.54
2022-08-14T07:43:28.762Z,27.70
2022-08-14T07:44:33.105Z,27.83
2022-08-14T07:45:32.040Z,27.85
2022-08-14T07:46:29.248Z,27.78
2022-08-14T07:47:29.161Z,27.83
2022-08-14T07:48:28.704Z,27.78
2022-08-14T07:49:28.700Z,27.87
2022-08-14T07:50:34.403Z,27.92
2022-08-14T07:51:36.845Z,27.98
2022-08-14T07:52:30.853Z,28.00
2022-08-14T07:53:28.654Z,27.92
2022-08-14T07:54:30.404Z,27.96
2022-08-14T07:55:28.999Z,27.90
2022-08-14T07:56:44.492Z,27.89
2022-08-14T07:57:29.607Z,27.93
2022-08-14T07:58:31.738Z,27.93
2022-08-14T07:59:41.895Z,28.01
2022-08-14T08:00:31.581Z,28.11
2022-08-14T08:01:30.013Z,28.26
2022-08-14T08:02:35.722Z,28.22
2022-08-14T08:03:30.346Z,28.05
2022-08-14T08:04:28.538Z,27.98
2022-08-14T08:05:29.525Z,27.95
2022-08-14T08:06:28.530Z,27.95
2022-08-14T08:07:30.023Z,27.95
2022-08-14T08:08:28.487Z,28.00
2022-08-14T08:09:31.897Z,28.12
2022-08-14T08:10:46.308Z,28.20
2022-08-14T08:11:29.480Z,28.26
2022-08-14T08:12:31.046Z,28.35
2022-08-14T08:13:28.679Z,28.47
2022-08-14T08:14:28.574Z,28.45
2022-08-14T08:15:28.437Z,28.52
2022-08-14T08:16:28.425Z,28.63
2022-08-14T08:17:34.818Z,28.56
2022-08-14T08:18:31.065Z,28.45
2022-08-14T08:19:28.371Z,28.49
2022-08-14T08:20:29.432Z,28.56
2022-08-14T08:21:28.363Z,28.60
2022-08-14T08:22:32.472Z,28.56
2022-08-14T08:23:34.476Z,28.75
2022-08-14T08:24:29.309Z,28.78
2022-08-14T08:25:28.317Z,28.79
2022-08-14T08:26:28.294Z,28.85
2022-08-14T08:27:28.344Z,28.86
2022-08-14T08:28:28.276Z,28.72
2022-08-14T08:29:29.742Z,28.64
2022-08-14T08:30:28.960Z,28.67
2022-08-14T08:31:33.077Z,28.81
2022-08-14T08:32:30.048Z,28.79
2022-08-14T08:33:32.059Z,28.96
2022-08-14T08:34:28.220Z,29.08
2022-08-14T08:35:46.119Z,29.13
2022-08-14T08:36:29.860Z,29.19
2022-08-14T08:37:30.509Z,29.27
2022-08-14T08:39:15.063Z,29.26
2022-08-14T08:39:30.960Z,29.22
2022-08-14T08:40:30.921Z,29.23
2022-08-14T08:41:28.133Z,29.23
2022-08-14T08:42:31.402Z,29.17
2022-08-14T08:43:29.109Z,29.32
2022-08-14T08:44:32.718Z,29.22
2022-08-14T08:45:29.083Z,29.34
2022-08-14T08:46:28.067Z,29.34
2022-08-14T08:47:28.063Z,29.29
2022-08-14T08:48:35.524Z,29.34
2022-08-14T08:49:29.059Z,29.36
2022-08-14T08:50:31.670Z,29.45
2022-08-14T08:51:31.193Z,29.53
2022-08-14T08:52:31.756Z,29.59
2022-08-14T08:53:27.991Z,29.63
2022-08-14T08:54:31.568Z,29.63
2022-08-14T08:55:27.974Z,29.71
2022-08-14T08:56:30.318Z,29.69
2022-08-14T08:57:28.952Z,29.82
2022-08-14T08:58:27.936Z,29.79
2022-08-14T08:59:31.650Z,29.72
2022-08-14T09:00:28.929Z,29.82
2022-08-14T09:01:27.957Z,29.82
2022-08-14T09:02:28.010Z,29.90
2022-08-14T09:03:27.979Z,30.10
2022-08-14T09:04:27.893Z,30.10
2022-08-14T09:05:27.868Z,30.12
2022-08-14T09:07:00.915Z,30.25
2022-08-14T09:07:28.853Z,30.30
2022-08-14T09:08:31.574Z,30.21
2022-08-14T09:09:30.427Z,30.15
2022-08-14T09:10:27.857Z,30.15
2022-08-14T09:11:27.796Z,30.12
2022-08-14T09:12:31.509Z,30.03
2022-08-14T09:13:27.879Z,30.06
2022-08-14T09:14:27.774Z,30.12
2022-08-14T09:15:36.686Z,30.15
2022-08-14T09:16:28.735Z,30.18
2022-08-14T09:17:27.733Z,30.03
2022-08-14T09:18:27.719Z,30.09
2022-08-14T09:19:27.731Z,29.93
2022-08-14T09:20:29.832Z,29.93
2022-08-14T09:21:31.414Z,29.88
2022-08-14T09:22:35.713Z,29.98
2022-08-14T09:23:35.190Z,30.00
2022-08-14T09:24:35.260Z,30.08
2022-08-14T09:26:00.547Z,30.19
2022-08-14T09:26:28.757Z,30.39
2022-08-14T09:27:27.653Z,30.54
2022-08-14T09:28:27.614Z,30.43
2022-08-14T09:29:28.647Z,30.37
2022-08-14T09:30:30.916Z,30.32
2022-08-14T09:31:28.575Z,30.43
2022-08-14T09:32:58.937Z,30.53
2022-08-14T09:33:28.558Z,30.59
2022-08-14T09:34:28.123Z,30.65
2022-08-14T09:35:27.786Z,30.83
2022-08-14T09:36:27.514Z,30.83
2022-08-14T09:37:27.518Z,30.94
2022-08-14T09:38:27.595Z,30.97
2022-08-14T09:39:27.537Z,31.07
2022-08-14T09:40:29.276Z,30.99
2022-08-14T09:41:36.771Z,31.02
2022-08-14T09:42:33.137Z,30.84
2022-08-14T09:43:28.454Z,30.83
2022-08-14T09:44:27.437Z,30.99
2022-08-14T09:45:30.389Z,30.94
2022-08-14T09:46:28.427Z,30.99
2022-08-14T09:47:27.405Z,30.99
2022-08-14T09:48:30.681Z,31.09
2022-08-14T09:49:27.387Z,31.07
2022-08-14T09:50:27.372Z,31.27
2022-08-14T09:51:33.059Z,31.27
2022-08-14T09:52:33.778Z,31.29
2022-08-14T09:54:12.899Z,31.36
2022-08-14T09:54:28.329Z,31.37
2022-08-14T09:55:27.869Z,31.36
2022-08-14T09:56:30.420Z,31.25
2022-08-14T09:57:27.519Z,31.15
2022-08-14T09:58:27.281Z,31.20
2022-08-14T09:59:28.345Z,31.21
2022-08-14T10:00:27.267Z,31.06
2022-08-14T10:01:27.250Z,31.05
2022-08-14T10:02:27.977Z,31.09
2022-08-14T10:03:28.754Z,31.10
2022-08-14T10:04:33.461Z,31.12
2022-08-14T10:05:28.219Z,31.22
2022-08-14T10:06:28.379Z,31.33
2022-08-14T10:07:27.191Z,31.43
2022-08-14T10:08:28.160Z,31.58
2022-08-14T10:09:27.159Z,31.61
2022-08-14T10:10:28.145Z,31.58
2022-08-14T10:11:34.825Z,31.43
2022-08-14T10:12:28.574Z,31.36
2022-08-14T10:13:27.133Z,31.39
2022-08-14T10:14:34.588Z,31.37
2022-08-14T10:15:30.063Z,31.28
2022-08-14T10:16:33.028Z,31.17
2022-08-14T10:17:32.950Z,31.20
2022-08-14T10:18:28.071Z,31.18
2022-08-14T10:19:27.049Z,31.20
2022-08-14T10:20:39.589Z,31.03
2022-08-14T10:21:28.030Z,30.94
2022-08-14T10:23:14.744Z,30.83
2022-08-14T10:23:30.028Z,30.87
2022-08-14T10:24:31.324Z,31.07
2022-08-14T10:25:27.989Z,31.06
2022-08-14T10:26:28.625Z,31.31
2022-08-14T10:27:27.175Z,31.22
2022-08-14T10:29:03.534Z,31.29
2022-08-14T10:29:27.956Z,31.37
2022-08-14T10:30:26.942Z,31.56
2022-08-14T10:31:27.120Z,31.65
2022-08-14T10:32:36.219Z,31.71
2022-08-14T10:33:27.901Z,31.66
2022-08-14T10:34:35.523Z,31.54
2022-08-14T10:35:31.039Z,31.51
2022-08-14T10:36:36.975Z,31.55
2022-08-14T10:37:28.114Z,31.52
2022-08-14T10:38:26.860Z,31.61
2022-08-14T10:39:26.900Z,31.59
2022-08-14T10:40:37.605Z,31.54
2022-08-14T10:41:31.710Z,31.58
2022-08-14T10:42:26.798Z,31.46
2022-08-14T10:43:26.803Z,31.47
2022-08-14T10:44:29.507Z,31.54
2022-08-14T10:45:26.802Z,31.59
2022-08-14T10:47:40.062Z,31.69
2022-08-14T10:47:40.875Z,31.77
2022-08-14T10:48:36.878Z,31.85
2022-08-14T10:49:27.721Z,31.96
2022-08-14T10:50:26.718Z,31.96
2022-08-14T10:51:26.738Z,31.93
2022-08-14T10:52:26.710Z,32.07
2022-08-14T10:53:26.680Z,32.04
2022-08-14T10:54:39.891Z,31.92
2022-08-14T10:55:27.674Z,31.80
2022-08-14T10:56:32.197Z,31.70
2022-08-14T10:57:27.634Z,31.62
2022-08-14T10:58:26.628Z,31.58
2022-08-14T10:59:31.282Z,31.62
2022-08-14T11:00:30.063Z,31.71
2022-08-14T11:01:26.613Z,31.65
2022-08-14T11:02:44.761Z,31.59
2022-08-14T11:03:55.197Z,31.73
2022-08-14T11:04:27.851Z,31.81
2022-08-14T11:05:26.552Z,31.74
2022-08-14T11:06:27.243Z,31.78
2022-08-14T11:07:26.548Z,31.69
2022-08-14T11:08:26.515Z,31.62
2022-08-14T11:09:31.636Z,31.46
2022-08-14T11:10:27.763Z,31.31
2022-08-14T11:11:26.479Z,31.31
2022-08-14T11:12:40.007Z,31.27
2022-08-14T11:13:27.489Z,31.34
2022-08-14T11:14:26.686Z,31.21
2022-08-14T11:15:26.433Z,31.24
2022-08-14T11:16:26.761Z,31.27
2022-08-14T11:17:26.427Z,31.27
2022-08-14T11:18:32.296Z,31.29
2022-08-14T11:19:27.397Z,31.33
2022-08-14T11:20:26.396Z,31.44
2022-08-14T11:21:26.366Z,31.42
2022-08-14T11:22:55.865Z,31.44
2022-08-14T11:23:27.359Z,31.40
2022-08-14T11:24:54.050Z,31.44
2022-08-14T11:25:43.204Z,31.44
2022-08-14T11:26:27.317Z,31.43
2022-08-14T11:27:33.375Z,31.42
2022-08-14T11:28:48.556Z,31.44
2022-08-14T11:29:27.281Z,31.40
2022-08-14T11:30:50.742Z,31.43
2022-08-14T11:31:27.267Z,31.29
2022-08-14T11:32:27.252Z,31.18
2022-08-14T11:33:26.257Z,31.21
2022-08-14T11:34:32.098Z,31.21
2022-08-14T11:35:27.214Z,31.28
2022-08-14T11:36:35.137Z,31.27
2022-08-14T11:37:38.081Z,31.31
2022-08-14T11:38:27.195Z,31.42
2022-08-14T11:39:34.865Z,31.47
2022-08-14T11:40:29.251Z,31.59
2022-08-14T11:41:26.164Z,31.52
2022-08-14T11:42:58.186Z,31.51
2022-08-14T11:43:29.203Z,31.46
2022-08-14T11:44:45.419Z,31.43
2022-08-14T11:45:29.941Z,31.44
2022-08-14T11:46:30.753Z,31.44
2022-08-14T11:47:27.093Z,31.52
2022-08-14T11:49:03.230Z,31.64
2022-08-14T11:49:27.061Z,31.70
2022-08-14T11:50:36.056Z,31.61
2022-08-14T11:51:30.581Z,31.69
2022-08-14T11:52:26.047Z,31.71
2022-08-14T11:53:26.044Z,31.59
2022-08-14T11:54:34.185Z,31.56
2022-08-14T11:55:27.019Z,31.54
2022-08-14T11:56:29.690Z,31.51
2022-08-14T11:57:26.000Z,31.64
2022-08-14T11:58:25.966Z,31.76
2022-08-14T11:59:26.507Z,31.85
2022-08-14T12:00:31.674Z,31.96
2022-08-14T12:01:26.949Z,31.96
2022-08-14T12:02:38.838Z,31.84
2022-08-14T12:03:46.194Z,31.81
2022-08-14T12:04:33.381Z,31.73
2022-08-14T12:05:26.886Z,31.74
2022-08-14T12:06:29.620Z,31.73
2022-08-14T12:07:26.883Z,31.90
2022-08-14T12:08:30.174Z,31.90
2022-08-14T12:09:25.855Z,31.92
2022-08-14T12:10:37.105Z,31.85
2022-08-14T12:11:26.825Z,31.74
2022-08-14T12:12:36.249Z,31.70
2022-08-14T12:13:27.299Z,31.66
2022-08-14T12:14:30.510Z,31.52
2022-08-14T12:15:26.778Z,31.47
2022-08-14T12:16:25.774Z,31.51
2022-08-14T12:17:25.756Z,31.33
2022-08-14T12:18:25.757Z,31.25
2022-08-14T12:19:25.734Z,31.39
2022-08-14T12:20:29.877Z,31.18
2022-08-14T12:21:29.445Z,31.43
2022-08-14T12:22:30.068Z,31.39
2022-08-14T12:23:25.696Z,31.43
2022-08-14T12:24:35.845Z,31.46
2022-08-14T12:25:26.681Z,31.47
2022-08-14T12:26:39.147Z,31.44
2022-08-14T12:27:26.646Z,31.61
2022-08-14T12:28:27.258Z,31.62
2022-08-14T12:29:26.639Z,31.46
2022-08-14T12:30:26.823Z,31.56
2022-08-14T12:31:25.605Z,31.52
2022-08-14T12:32:25.599Z,31.55
2022-08-14T12:33:26.996Z,31.62
2022-08-14T12:34:26.581Z,31.66
2022-08-14T12:35:25.582Z,31.66
2022-08-14T12:36:25.551Z,31.65
2022-08-14T12:37:25.537Z,31.65
2022-08-14T12:38:25.534Z,31.69
2022-08-14T12:39:25.549Z,31.62
2022-08-14T12:40:25.530Z,31.69
2022-08-14T12:41:28.247Z,31.70
2022-08-14T12:42:27.160Z,31.87
2022-08-14T12:43:26.472Z,31.94
2022-08-14T12:44:25.475Z,31.96
2022-08-14T12:45:25.454Z,31.99
2022-08-14T12:46:27.160Z,31.96
2022-08-14T12:47:25.426Z,31.99
2022-08-14T12:48:31.933Z,31.84
2022-08-14T12:49:26.405Z,31.73
2022-08-14T12:50:25.403Z,31.69
2022-08-14T12:51:27.306Z,31.71
2022-08-14T12:52:30.729Z,31.62